Aérodrome :
LOGIN :

S'inscrire | Disclaimer

   EN    FR    IT 

 










Légende :    VFR   VFR Marginal   IFR   IFR Intensif   IFR Très Intensif
Visi : 
Plafond : 
>= 8 km
>= 3000ft
5 à 8 km
1000 à 3000 ft
1500m à 5 km
500 à 1000 ft
800 à 1500m
200 à 500 ft
< 800m
< 200 ft
Symboles :   Orages  Brouillard  Fortes neiges  Fortes précipitations  Vent > 20 kt
SIGMETs :   Divers  Orages  Givrage  Turbulence  Onde Orograph.  Cendres Volcan.







- Altitude de l'aérodrome : 1260 ft
- Code IATA : LDE
- Voir les cartes d'approche


LFBT - Tarbes / Ossun

DERNIER METAR :
  • 210400Z AUTO 25012KT 4700 -RA BR FEW006 BKN014 BKN020 11/11 Q1023 TEMPO 2000 RA OVC004

METARs EXPIRÉS :
  • 210330Z AUTO 26012KT 6000 DZ FEW004 BKN009 OVC015 11/11 Q1024 TEMPO 2000 RA OVC004
  • 210300Z AUTO 26012KT 6000 DZ BKN008 OVC017 11/11 Q1024 TEMPO 2000 RA OVC004
  • 210230Z AUTO 26013KT 5000 DZ BR BKN007 BKN011 OVC016 11/11 Q1024 TEMPO 2000 RA OVC004
  • 210200Z AUTO 25014KT 6000 DZ SCT007 BKN011 BKN017 11/10 Q1023 TEMPO 2000 RA OVC004
  • 210130Z AUTO 26013KT 5000 -RA BR BKN007 BKN016 OVC023 11/10 Q1023 TEMPO 2000 RA OVC004

TAF TAF LFBT
Valide du 21 à 00h jusqu'au 22 à 00h UTC


202300Z 2100/2124 27016KT 5000 OVC008
TEMPO 2100/2112 2000 RA OVC004
PROB30
TEMPO 2112/2118 27018G30KT 4000 -RA OVC005
BECMG 2117/2120 BKN012
Pas de NOTAMs connus pour ce terrain.
1 SIGMET publié pour la FIR Bordeaux (LFBB) :
 
Onde orographique forte
LFBB SIGMET 1 VALID 210300/210700 LFPW
LFBB BORDEAUX FIR/UIR SEV MTW FCST WI N4245 E00230 - N4215 E00230 - N4245 E00000 - N4300 E00000 - N4245 E00230 SFC/FL350 STNR NC=



MET'MAP, la Météo Aéronautique d'un coup d'oeil ! - Copyright ORBIFLY Décembre 2007 - Disclaimer

ORBIFLY MET'MAP TEAM :

Programmation & Développement : Alexandra Zaïnal
Conception & Développement : Baudouin d'Aumeries
Co-Programmation & Développement : Marc-Olivier Méhu
Soutien technique & logistique : Manuel Goepfert

Contact : metmap@orbifly.com




SOURCES & CREDITS :

   NOAA